createdAt,value
2018-11-12T00:01:05.763Z,43.93
2018-11-12T00:03:33.268Z,40.90
2018-11-12T00:06:00.748Z,41.73
2018-11-12T00:08:28.228Z,40.90
2018-11-12T00:10:55.714Z,39.10
2018-11-12T00:13:23.192Z,40.57
2018-11-12T00:15:50.680Z,37.97
2018-11-12T00:18:18.151Z,43.73
2018-11-12T00:20:45.616Z,39.10
2018-11-12T00:23:13.109Z,45.90
2018-11-12T00:25:40.580Z,44.20
2018-11-12T00:28:08.078Z,45.07
2018-11-12T00:30:52.004Z,44.80
2018-11-12T00:33:19.475Z,45.93
2018-11-12T00:35:46.956Z,45.33
2018-11-12T00:38:14.450Z,42.87
2018-11-12T00:40:41.960Z,47.27
2018-11-12T00:43:09.447Z,45.77
2018-11-12T00:45:36.936Z,45.20
2018-11-12T00:48:04.641Z,46.77
2018-11-12T00:50:32.137Z,43.63
2018-11-12T00:52:59.624Z,50.40
2018-11-12T00:55:27.108Z,47.43
2018-11-12T00:57:54.594Z,46.63
2018-11-12T01:00:22.079Z,44.40
2018-11-12T01:02:50.168Z,47.93
2018-11-12T01:05:18.364Z,43.83
2018-11-12T01:07:46.512Z,44.53
2018-11-12T01:10:15.006Z,46.47
2018-11-12T01:12:42.966Z,48.13
2018-11-12T01:15:11.864Z,42.77
2018-11-12T01:17:39.622Z,42.30
2018-11-12T01:20:08.101Z,48.90
2018-11-12T01:22:35.576Z,43.47
2018-11-12T01:25:03.132Z,43.73
2018-11-12T01:27:30.605Z,47.20
2018-11-12T01:29:58.092Z,50.13
2018-11-12T01:32:25.573Z,45.73
2018-11-12T01:34:53.069Z,45.33
2018-11-12T01:37:20.561Z,43.63
2018-11-12T01:39:48.052Z,47.57
2018-11-12T01:42:15.528Z,45.57
2018-11-12T01:44:43.037Z,42.53
2018-11-12T01:47:10.549Z,39.57
2018-11-12T01:49:38.044Z,40.57
2018-11-12T01:52:05.831Z,45.07
2018-11-12T01:54:33.528Z,40.03
2018-11-12T01:57:01.017Z,43.77
2018-11-12T01:59:28.514Z,43.20
2018-11-12T02:01:56.032Z,40.10
2018-11-12T02:04:23.552Z,40.83
2018-11-12T02:06:51.045Z,38.33
2018-11-12T02:09:18.552Z,41.40
2018-11-12T02:11:46.056Z,42.93
2018-11-12T02:14:13.570Z,40.33
2018-11-12T02:16:41.081Z,37.97
2018-11-12T02:19:08.583Z,37.37
2018-11-12T02:21:36.109Z,41.07
2018-11-12T02:24:03.634Z,40.03
2018-11-12T02:26:31.155Z,40.03
2018-11-12T02:28:58.648Z,42.33
2018-11-12T02:31:26.196Z,42.63
2018-11-12T02:33:53.669Z,40.63
2018-11-12T02:36:21.168Z,41.63
2018-11-12T02:38:48.700Z,42.47
2018-11-12T02:41:16.193Z,40.03
2018-11-12T02:43:43.901Z,45.23
2018-11-12T02:46:11.400Z,39.63
2018-11-12T02:48:38.896Z,39.67
2018-11-12T02:51:06.593Z,43.23
2018-11-12T02:53:34.093Z,39.77
2018-11-12T02:56:01.638Z,43.87
2018-11-12T02:58:29.117Z,40.70
2018-11-12T03:00:56.618Z,43.10
2018-11-12T03:03:24.107Z,41.93
2018-11-12T03:05:51.591Z,44.67
2018-11-12T03:08:19.073Z,45.07
2018-11-12T03:10:46.544Z,41.97
2018-11-12T03:13:14.032Z,40.10
2018-11-12T03:15:41.521Z,44.97
2018-11-12T03:18:09.013Z,44.37
2018-11-12T03:20:36.503Z,40.93
2018-11-12T03:23:03.997Z,41.77
2018-11-12T03:25:31.500Z,47.07
2018-11-12T03:27:58.993Z,46.90
2018-11-12T03:30:26.473Z,43.53
2018-11-12T03:32:53.964Z,42.07
2018-11-12T03:35:21.474Z,44.27
2018-11-12T03:37:49.708Z,44.47
2018-11-12T03:40:19.852Z,43.30
2018-11-12T03:42:47.904Z,45.60
2018-11-12T03:45:18.542Z,43.13
2018-11-12T03:47:46.025Z,44.87
2018-11-12T03:50:16.836Z,46.40
2018-11-12T03:52:44.588Z,43.93
2018-11-12T03:55:13.289Z,47.37
2018-11-12T03:57:40.940Z,45.73
2018-11-12T04:00:13.794Z,46.60
2018-11-12T04:02:41.278Z,44.93
2018-11-12T04:05:08.948Z,47.67
2018-11-12T04:07:36.904Z,47.53
2018-11-12T04:10:07.144Z,44.50
2018-11-12T04:12:34.620Z,47.03
2018-11-12T04:15:02.117Z,44.20
2018-11-12T04:17:29.583Z,47.57
2018-11-12T04:19:57.069Z,42.90
2018-11-12T04:22:24.556Z,46.77
2018-11-12T04:24:52.034Z,42.23
2018-11-12T04:27:19.508Z,42.53
2018-11-12T04:29:46.989Z,42.83
2018-11-12T04:32:14.457Z,43.73
2018-11-12T04:34:41.949Z,41.90
2018-11-12T04:37:09.433Z,39.97
2018-11-12T04:39:36.908Z,45.30
2018-11-12T04:42:04.751Z,43.20
2018-11-12T04:44:32.233Z,38.77
2018-11-12T04:46:59.724Z,43.13
2018-11-12T04:49:27.223Z,42.43
2018-11-12T04:51:54.701Z,42.63
2018-11-12T04:54:22.164Z,46.60
2018-11-12T04:56:49.676Z,43.37
2018-11-12T04:59:17.176Z,38.63
2018-11-12T05:01:44.673Z,41.10
2018-11-12T05:04:12.165Z,37.20
2018-11-12T05:06:39.652Z,38.47
2018-11-12T05:09:08.673Z,40.13
2018-11-12T05:11:36.181Z,38.13
2018-11-12T05:14:03.709Z,39.90
2018-11-12T05:16:31.237Z,41.23
2018-11-12T05:18:58.712Z,38.30
2018-11-12T05:21:26.196Z,38.40
2018-11-12T05:23:53.681Z,36.40
2018-11-12T05:26:21.172Z,42.97
2018-11-12T05:28:48.645Z,36.53
2018-11-12T05:31:16.144Z,36.60
2018-11-12T05:33:43.604Z,34.30
2018-11-12T05:36:11.116Z,33.93
2018-11-12T05:38:38.569Z,33.97
2018-11-12T05:41:06.064Z,37.57
2018-11-12T05:43:33.572Z,33.87
2018-11-12T05:46:01.058Z,33.57
2018-11-12T05:48:28.620Z,35.50
2018-11-12T05:50:56.101Z,34.07
2018-11-12T05:53:23.575Z,34.23
2018-11-12T05:55:51.064Z,35.63
2018-11-12T05:58:18.536Z,31.80
2018-11-12T06:00:46.020Z,33.97
2018-11-12T06:03:13.507Z,32.83
2018-11-12T06:05:40.993Z,34.37
2018-11-12T06:08:08.477Z,33.37
2018-11-12T06:10:36.141Z,34.73
2018-11-12T06:13:03.928Z,31.47
2018-11-12T06:15:31.405Z,31.23
2018-11-12T06:17:58.888Z,31.77
2018-11-12T06:20:27.720Z,32.60
2018-11-12T06:22:55.216Z,29.77
2018-11-12T06:25:24.163Z,35.83
2018-11-12T06:27:51.928Z,33.50
2018-11-12T06:30:20.603Z,33.00
2018-11-12T06:32:48.091Z,32.47
2018-11-12T06:35:16.033Z,30.17
2018-11-12T06:37:44.225Z,32.13
2018-11-12T06:40:14.028Z,36.73
2018-11-12T06:42:41.642Z,31.10
2018-11-12T06:45:12.003Z,31.93
2018-11-12T06:47:39.988Z,34.63
2018-11-12T06:50:09.784Z,33.90
2018-11-12T06:52:37.497Z,31.87
2018-11-12T06:55:06.681Z,32.00
2018-11-12T06:57:34.196Z,30.30
2018-11-12T07:00:01.871Z,32.27
2018-11-12T07:02:34.009Z,30.70
2018-11-12T07:05:01.513Z,32.73
2018-11-12T07:07:29.025Z,31.77
2018-11-12T07:09:56.520Z,30.00
2018-11-12T07:12:24.040Z,32.37
2018-11-12T07:14:51.560Z,30.97
2018-11-12T07:17:19.116Z,29.97
2018-11-12T07:19:46.596Z,30.80
2018-11-12T07:22:14.088Z,32.93
2018-11-12T07:24:41.597Z,32.30
2018-11-12T07:27:09.085Z,28.87
2018-11-12T07:29:36.592Z,31.07
2018-11-12T07:32:04.140Z,31.43
2018-11-12T07:34:31.653Z,30.87
2018-11-12T07:36:59.133Z,30.33
2018-11-12T07:39:26.624Z,29.63
2018-11-12T07:41:54.220Z,32.17
2018-11-12T07:44:21.640Z,31.23
2018-11-12T07:46:49.124Z,26.60
2018-11-12T07:49:16.704Z,27.57
2018-11-12T07:51:44.180Z,27.63
2018-11-12T07:54:11.657Z,28.27
2018-11-12T07:56:39.233Z,27.47
2018-11-12T07:59:06.716Z,28.50
2018-11-12T08:01:34.204Z,26.80
2018-11-12T08:04:01.700Z,26.50
2018-11-12T08:06:29.179Z,27.07
2018-11-12T08:08:56.663Z,28.73
2018-11-12T08:11:24.148Z,26.70
2018-11-12T08:13:51.616Z,25.77
2018-11-12T08:16:19.129Z,27.73
2018-11-12T08:18:46.607Z,26.00
2018-11-12T08:21:14.082Z,28.70
2018-11-12T08:23:41.573Z,23.43
2018-11-12T08:26:09.056Z,25.97
2018-11-12T08:28:36.549Z,21.63
2018-11-12T08:31:04.073Z,23.10
2018-11-12T08:33:31.548Z,22.77
2018-11-12T08:35:59.027Z,22.73
2018-11-12T08:38:26.509Z,24.83
2018-11-12T08:40:54.105Z,21.57
2018-11-12T08:43:21.489Z,19.07
2018-11-12T08:45:48.988Z,20.70
2018-11-12T08:48:16.551Z,22.30
2018-11-12T08:50:43.997Z,21.43
2018-11-12T08:53:11.504Z,18.17
2018-11-12T08:55:39.088Z,20.47
2018-11-12T08:58:06.531Z,19.43
2018-11-12T09:00:34.020Z,19.33
2018-11-12T09:03:01.542Z,17.30
2018-11-12T09:05:29.885Z,19.00
2018-11-12T09:08:00.625Z,18.13
2018-11-12T09:10:29.611Z,20.23
2018-11-12T09:12:57.278Z,19.83
2018-11-12T09:15:24.804Z,17.43
2018-11-12T09:17:52.304Z,17.07
2018-11-12T09:20:21.176Z,17.43
2018-11-12T09:22:48.704Z,19.80
2018-11-12T09:25:18.448Z,17.80
2018-11-12T09:27:45.979Z,18.00
2018-11-12T09:30:15.892Z,19.17
2018-11-12T09:32:43.757Z,18.97
2018-11-12T09:35:13.288Z,18.53
2018-11-12T09:37:41.477Z,18.03
2018-11-12T09:40:13.072Z,18.40
2018-11-12T09:42:40.793Z,19.07
2018-11-12T09:45:09.265Z,17.33
2018-11-12T09:47:36.782Z,21.07
2018-11-12T09:50:06.672Z,17.77
2018-11-12T09:52:34.168Z,19.57
2018-11-12T09:55:01.672Z,16.77
2018-11-12T09:57:29.240Z,16.80
2018-11-12T09:59:56.811Z,17.10
2018-11-12T10:02:25.037Z,18.10
2018-11-12T10:04:53.123Z,19.00
2018-11-12T10:07:20.669Z,17.60
2018-11-12T10:09:48.698Z,19.20
2018-11-12T10:12:16.588Z,18.30
2018-11-12T10:14:44.007Z,19.73
2018-11-12T10:17:13.165Z,19.03
2018-11-12T10:19:36.794Z,20.37
2018-11-12T10:22:04.560Z,18.70
2018-11-12T10:24:32.065Z,17.73
2018-11-12T10:26:59.556Z,16.03
2018-11-12T10:29:27.064Z,18.23
2018-11-12T10:31:54.572Z,19.53
2018-11-12T10:34:22.155Z,15.95
2018-11-12T10:36:49.653Z,17.57
2018-11-12T10:39:17.165Z,17.47
2018-11-12T10:41:44.670Z,12.55
2018-11-12T10:44:12.193Z,15.05
2018-11-12T10:46:39.694Z,17.70
2018-11-12T10:49:07.184Z,12.63
2018-11-12T10:51:34.677Z,11.83
2018-11-12T10:54:02.441Z,15.32
2018-11-12T10:56:29.801Z,11.43
2018-11-12T10:58:57.294Z,10.20
2018-11-12T11:01:29.875Z,9.50
2018-11-12T11:04:03.014Z,9.25
2018-11-12T11:06:30.540Z,10.90
2018-11-12T11:08:58.051Z,7.00
2018-11-12T11:11:25.543Z,7.60
2018-11-12T11:13:53.041Z,8.93
2018-11-12T11:16:20.545Z,7.28
2018-11-12T11:18:48.016Z,7.78
2018-11-12T11:21:15.618Z,6.20
2018-11-12T11:23:43.055Z,5.95
2018-11-12T11:26:10.541Z,6.80
2018-11-12T11:28:38.036Z,7.00
2018-11-12T11:31:05.532Z,7.28
2018-11-12T11:33:33.022Z,6.83
2018-11-12T11:36:00.669Z,8.28
2018-11-12T11:38:28.197Z,6.30
2018-11-12T11:40:55.715Z,8.58
2018-11-12T11:43:23.189Z,7.33
2018-11-12T11:45:50.720Z,7.40
2018-11-12T11:48:18.365Z,8.70
2018-11-12T11:50:45.840Z,7.90
2018-11-12T11:53:13.222Z,8.23
2018-11-12T11:55:40.704Z,7.60
2018-11-12T11:58:08.211Z,7.65
2018-11-12T12:00:35.721Z,7.85
2018-11-12T12:03:03.257Z,9.03
2018-11-12T12:05:30.743Z,7.85
2018-11-12T12:07:58.384Z,7.92
2018-11-12T12:10:25.904Z,7.97
2018-11-12T12:12:53.509Z,8.05
2018-11-12T12:15:21.892Z,8.33
2018-11-12T12:17:49.418Z,9.50
2018-11-12T12:20:21.320Z,9.35
2018-11-12T12:22:48.819Z,9.28
2018-11-12T12:25:16.804Z,10.35
2018-11-12T12:27:44.740Z,10.75
2018-11-12T12:30:15.965Z,9.70
2018-11-12T12:32:44.471Z,9.18
2018-11-12T12:35:12.513Z,10.55
2018-11-12T12:37:40.595Z,10.23
2018-11-12T12:40:09.732Z,10.13
2018-11-12T12:42:37.779Z,11.33
2018-11-12T12:45:06.713Z,10.20
2018-11-12T12:47:34.165Z,11.78
2018-11-12T12:50:01.672Z,11.95
2018-11-12T12:52:29.154Z,10.55
2018-11-12T12:54:56.636Z,13.85
2018-11-12T12:57:24.129Z,11.68
2018-11-12T12:59:51.655Z,11.73
2018-11-12T13:02:19.147Z,12.35
2018-11-12T13:04:46.647Z,13.45
2018-11-12T13:07:14.194Z,13.15
2018-11-12T13:09:41.649Z,12.40
2018-11-12T13:12:09.128Z,13.25
2018-11-12T13:14:36.678Z,12.23
2018-11-12T13:17:04.276Z,14.00
2018-11-12T13:19:31.761Z,13.40
2018-11-12T13:21:59.241Z,13.18
2018-11-12T13:24:26.753Z,16.15
2018-11-12T13:26:54.232Z,15.20
2018-11-12T13:29:21.812Z,15.58
2018-11-12T13:31:49.290Z,19.82
2018-11-12T13:34:16.759Z,13.85
2018-11-12T13:36:44.236Z,15.70
2018-11-12T13:39:12.517Z,13.60
2018-11-12T13:41:40.352Z,15.93
2018-11-12T13:44:07.834Z,13.18
2018-11-12T13:46:41.259Z,14.15
2018-11-12T13:49:08.796Z,14.93
2018-11-12T13:51:36.276Z,14.28
2018-11-12T13:54:04.713Z,13.38
2018-11-12T13:56:32.221Z,18.40
2018-11-12T13:58:59.725Z,18.42
2018-11-12T14:01:27.252Z,17.30
2018-11-12T14:03:54.740Z,15.48
2018-11-12T14:06:22.260Z,16.10
2018-11-12T14:08:49.746Z,15.08
2018-11-12T14:11:17.240Z,16.30
2018-11-12T14:13:44.802Z,17.97
2018-11-12T14:16:12.296Z,14.47
2018-11-12T14:18:39.776Z,17.23
2018-11-12T14:21:07.444Z,20.60
2018-11-12T14:23:34.800Z,19.67
2018-11-12T14:26:02.296Z,18.03
2018-11-12T14:28:29.926Z,17.73
2018-11-12T14:30:57.305Z,16.50
2018-11-12T14:33:24.874Z,19.50
2018-11-12T14:35:52.338Z,17.03
2018-11-12T14:38:19.848Z,19.83
2018-11-12T14:40:47.336Z,19.63
2018-11-12T14:43:14.841Z,19.23
2018-11-12T14:45:42.328Z,19.87
2018-11-12T14:48:09.832Z,21.97
2018-11-12T14:50:37.320Z,24.90
2018-11-12T14:53:04.971Z,22.03
2018-11-12T14:55:32.460Z,22.83
2018-11-12T14:57:59.962Z,22.37
2018-11-12T15:00:27.452Z,23.00
2018-11-12T15:02:55.317Z,23.70
2018-11-12T15:05:24.001Z,21.90
2018-11-12T15:07:51.514Z,22.53
2018-11-12T15:10:19.128Z,23.20
2018-11-12T15:12:47.301Z,20.73
2018-11-12T15:15:14.906Z,23.70
2018-11-12T15:17:42.520Z,22.07
2018-11-12T15:20:12.554Z,23.13
2018-11-12T15:22:40.137Z,25.53
2018-11-12T15:25:10.636Z,25.30
2018-11-12T15:27:38.136Z,27.83
2018-11-12T15:30:09.300Z,24.60
2018-11-12T15:32:36.928Z,29.07
2018-11-12T15:35:06.098Z,28.83
2018-11-12T15:37:33.654Z,24.27
2018-11-12T15:40:01.110Z,28.87
2018-11-12T15:42:28.608Z,27.70
2018-11-12T15:44:56.108Z,30.60
2018-11-12T15:47:23.629Z,28.73
2018-11-12T15:49:51.224Z,29.67
2018-11-12T15:52:18.701Z,27.37
2018-11-12T15:54:46.211Z,28.70
2018-11-12T15:57:14.831Z,28.87
2018-11-12T15:59:42.255Z,32.40
2018-11-12T16:02:09.765Z,29.30
2018-11-12T16:04:37.254Z,29.73
2018-11-12T16:07:04.839Z,30.73
2018-11-12T16:09:32.347Z,31.77
2018-11-12T16:11:59.907Z,30.43
2018-11-12T16:14:27.382Z,30.53
2018-11-12T16:16:54.877Z,35.87
2018-11-12T16:19:22.458Z,33.03
2018-11-12T16:21:49.872Z,34.73
2018-11-12T16:24:17.400Z,38.23
2018-11-12T16:26:45.023Z,36.80
2018-11-12T16:29:12.445Z,34.90
2018-11-12T16:31:39.941Z,36.17
2018-11-12T16:34:07.469Z,35.13
2018-11-12T16:36:34.968Z,35.23
2018-11-12T16:39:02.632Z,41.07
2018-11-12T16:41:30.127Z,35.83
2018-11-12T16:43:57.676Z,35.53
2018-11-12T16:46:25.184Z,35.40
2018-11-12T16:48:52.656Z,36.50
2018-11-12T16:51:20.196Z,37.73
2018-11-12T16:53:47.676Z,37.53
2018-11-12T16:56:15.168Z,37.13
2018-11-12T16:58:42.656Z,37.60
2018-11-12T17:01:10.265Z,36.70
2018-11-12T17:03:37.660Z,41.00
2018-11-12T17:06:05.164Z,38.00
2018-11-12T17:08:32.660Z,38.03
2018-11-12T17:11:00.158Z,38.23
2018-11-12T17:13:27.641Z,34.43
2018-11-12T17:15:55.124Z,41.33
2018-11-12T17:18:22.605Z,37.87
2018-11-12T17:20:50.088Z,38.03
2018-11-12T17:23:17.568Z,40.23
2018-11-12T17:25:45.041Z,39.57
2018-11-12T17:28:12.534Z,37.43
2018-11-12T17:30:40.058Z,39.10
2018-11-12T17:33:07.516Z,35.60
2018-11-12T17:35:34.988Z,38.43
2018-11-12T17:38:02.472Z,39.83
2018-11-12T17:40:29.945Z,37.53
2018-11-12T17:42:57.429Z,41.33
2018-11-12T17:45:26.240Z,43.00
2018-11-12T17:47:54.525Z,42.27
2018-11-12T17:50:22.028Z,40.23
2018-11-12T17:52:49.536Z,38.73
2018-11-12T17:55:17.038Z,38.97
2018-11-12T17:57:44.549Z,39.07
2018-11-12T18:00:16.449Z,36.60
2018-11-12T18:02:44.008Z,39.87
2018-11-12T18:05:11.605Z,38.97
2018-11-12T18:07:40.054Z,38.30
2018-11-12T18:10:08.600Z,39.03
2018-11-12T18:12:36.361Z,40.17
2018-11-12T18:15:05.912Z,37.87
2018-11-12T18:17:33.401Z,43.37
2018-11-12T18:20:00.915Z,37.93
2018-11-12T18:22:28.404Z,41.03
2018-11-12T18:24:55.980Z,40.40
2018-11-12T18:27:23.468Z,40.43
2018-11-12T18:29:51.081Z,37.60
2018-11-12T18:32:18.564Z,38.70
2018-11-12T18:34:46.067Z,39.47
2018-11-12T18:37:13.566Z,38.63
2018-11-12T18:39:41.069Z,41.33
2018-11-12T18:42:12.425Z,41.97
2018-11-12T18:44:39.911Z,37.50
2018-11-12T18:47:07.416Z,39.83
2018-11-12T18:49:34.928Z,41.03
2018-11-12T18:52:02.436Z,41.77
2018-11-12T18:54:29.924Z,42.53
2018-11-12T18:56:57.411Z,42.57
2018-11-12T18:59:24.915Z,41.93
2018-11-12T19:01:52.434Z,41.90
2018-11-12T19:04:19.932Z,40.60
2018-11-12T19:06:47.435Z,40.73
2018-11-12T19:09:29.064Z,38.37
2018-11-12T19:11:56.569Z,38.50
2018-11-12T19:14:24.076Z,39.93
2018-11-12T19:16:51.617Z,36.57
2018-11-12T19:19:19.152Z,37.90
2018-11-12T19:21:57.436Z,38.33
2018-11-12T19:24:24.944Z,37.20
2018-11-12T19:26:52.429Z,38.53
2018-11-12T19:29:19.936Z,40.60
2018-11-12T19:31:47.438Z,42.13
2018-11-12T19:34:14.944Z,40.87
2018-11-12T19:37:01.432Z,41.67
2018-11-12T19:39:28.956Z,39.03
2018-11-12T19:41:56.451Z,40.60
2018-11-12T19:44:23.984Z,41.57
2018-11-12T19:46:51.553Z,43.33
2018-11-12T19:49:19.056Z,38.03
2018-11-12T19:51:46.579Z,42.23
2018-11-12T19:54:14.077Z,42.50
2018-11-12T19:56:41.577Z,40.23
2018-11-12T19:59:09.180Z,38.67
2018-11-12T20:01:36.578Z,38.07
2018-11-12T20:04:04.717Z,36.77
2018-11-12T20:06:32.195Z,38.37
2018-11-12T20:08:59.668Z,39.40
2018-11-12T20:11:27.168Z,35.83
2018-11-12T20:13:54.660Z,38.10
2018-11-12T20:16:22.180Z,36.73
2018-11-12T20:18:49.660Z,37.17
2018-11-12T20:21:17.156Z,37.67
2018-11-12T20:23:44.644Z,37.10
2018-11-12T20:26:12.136Z,36.40
2018-11-12T20:28:39.645Z,39.53
2018-11-12T20:31:07.152Z,36.97
2018-11-12T20:33:34.652Z,38.50
2018-11-12T20:36:02.148Z,39.43
2018-11-12T20:38:29.672Z,35.97
2018-11-12T20:40:57.155Z,37.87
2018-11-12T20:43:24.655Z,40.93
2018-11-12T20:45:52.150Z,39.13
2018-11-12T20:48:20.653Z,37.90
2018-11-12T20:50:48.168Z,38.07
2018-11-12T20:53:15.616Z,39.07
2018-11-12T20:55:56.544Z,37.13
2018-11-12T20:58:24.011Z,40.07
2018-11-12T21:00:51.568Z,37.10
2018-11-12T21:03:19.044Z,37.67
2018-11-12T21:06:04.547Z,40.13
2018-11-12T21:08:32.024Z,39.17
2018-11-12T21:10:59.531Z,39.43
2018-11-12T21:13:26.997Z,41.47
2018-11-12T21:16:21.912Z,37.57
2018-11-12T21:18:49.388Z,38.20
2018-11-12T21:21:16.904Z,40.03
2018-11-12T21:23:44.372Z,35.87
2018-11-12T21:26:11.857Z,41.77
2018-11-12T21:28:39.337Z,36.30
2018-11-12T21:31:06.820Z,34.83
2018-11-12T21:33:34.279Z,36.50
2018-11-12T21:36:01.785Z,37.57
2018-11-12T21:38:29.266Z,34.83
2018-11-12T21:40:56.732Z,37.93
2018-11-12T21:43:24.329Z,38.30
2018-11-12T21:45:51.704Z,34.60
2018-11-12T21:48:19.184Z,32.53
2018-11-12T21:50:46.664Z,37.30
2018-11-12T21:53:14.144Z,35.57
2018-11-12T21:55:41.636Z,32.00
2018-11-12T21:58:09.118Z,34.97
2018-11-12T22:00:36.620Z,32.63
2018-11-12T22:03:05.037Z,32.63
2018-11-12T22:05:33.190Z,36.80
2018-11-12T22:08:01.060Z,32.37
2018-11-12T22:10:28.549Z,32.57
2018-11-12T22:12:56.169Z,34.17
2018-11-12T22:15:27.844Z,32.30
2018-11-12T22:17:55.312Z,34.60
2018-11-12T22:20:24.295Z,33.10
2018-11-12T22:22:51.786Z,33.17
2018-11-12T22:25:20.428Z,33.63
2018-11-12T22:27:48.696Z,33.10
2018-11-12T22:30:18.408Z,28.27
2018-11-12T22:32:47.193Z,33.00
2018-11-12T22:35:14.685Z,32.23
2018-11-12T22:37:42.746Z,34.00
2018-11-12T22:40:11.417Z,30.47
2018-11-12T22:42:39.784Z,32.73
2018-11-12T22:45:09.240Z,36.10
2018-11-12T22:47:36.745Z,32.03
2018-11-12T22:50:05.856Z,32.57
2018-11-12T22:52:33.349Z,30.33
2018-11-12T22:55:00.841Z,30.87
2018-11-12T22:57:28.316Z,31.17
2018-11-12T22:59:55.882Z,30.07
2018-11-12T23:02:23.384Z,29.20
2018-11-12T23:04:50.882Z,28.37
2018-11-12T23:07:18.599Z,30.47
2018-11-12T23:09:46.103Z,29.80
2018-11-12T23:12:13.594Z,28.13
2018-11-12T23:14:41.077Z,31.23
2018-11-12T23:17:08.575Z,31.47
2018-11-12T23:19:36.104Z,29.43
2018-11-12T23:22:03.572Z,27.43
2018-11-12T23:24:31.056Z,32.13
2018-11-12T23:26:58.536Z,28.90
2018-11-12T23:29:26.020Z,27.97
2018-11-12T23:31:53.505Z,28.77
2018-11-12T23:34:20.973Z,29.17
2018-11-12T23:36:48.457Z,28.30
2018-11-12T23:39:15.946Z,29.10
2018-11-12T23:41:43.433Z,28.33
2018-11-12T23:44:10.907Z,28.50
2018-11-12T23:46:38.405Z,27.87
2018-11-12T23:49:05.892Z,30.37
2018-11-12T23:51:33.396Z,28.37
2018-11-12T23:54:00.897Z,30.27
2018-11-12T23:56:28.397Z,27.63
2018-11-12T23:58:55.875Z,27.07
